TimeEST,TemperatureF,Dew PointF,Humidity,Sea Level PressureIn,VisibilityMPH,Wind Direction,Wind SpeedMPH,Gust SpeedMPH,PrecipitationIn,Events,Conditions,WindDirDegrees,DateUTC
12:53 AM,42.1,27.0,55,30.01,10.0,SSE,8.1,-,N/A,,Clear,160,2006-01-02 05:53:00
1:53 AM,45.0,27.0,49,30.01,10.0,South,8.1,-,N/A,,Partly Cloudy,170,2006-01-02 06:53:00
2:53 AM,48.0,27.0,44,29.99,10.0,SSE,10.4,-,N/A,,Scattered Clouds,160,2006-01-02 07:53:00
3:53 AM,46.9,27.0,46,29.94,10.0,SSE,9.2,-,N/A,,Clear,160,2006-01-02 08:53:00
4:53 AM,46.9,28.0,48,29.91,10.0,SSE,18.4,-,N/A,,Clear,160,2006-01-02 09:53:00
5:53 AM,48.0,28.9,48,29.91,10.0,SSE,9.2,-,N/A,,Mostly Cloudy,150,2006-01-02 10:53:00
6:53 AM,48.9,33.1,54,29.92,10.0,SSE,11.5,-,0.00,Rain,Light Rain,160,2006-01-02 11:53:00
7:14 AM,48.2,35.6,62,29.90,10.0,SSE,10.4,-,0.01,Rain-Thunderstorm,Light Thunderstorms and Rain,150,2006-01-02 12:14:00
7:29 AM,46.4,39.2,76,29.91,10.0,SSE,5.8,-,0.02,Rain,Light Rain,160,2006-01-02 12:29:00
7:53 AM,46.0,41.0,83,29.92,10.0,SSE,10.4,-,0.02,Rain,Light Rain,150,2006-01-02 12:53:00
8:53 AM,46.9,44.1,90,29.93,4.0,SSE,3.5,-,0.13,Rain,Rain,160,2006-01-02 13:53:00
9:28 AM,48.2,46.4,93,29.91,7.0,South,6.9,-,0.07,Rain,Light Rain,170,2006-01-02 14:28:00
9:53 AM,48.0,46.0,93,29.92,4.0,SSE,5.8,-,0.10,Rain,Rain,160,2006-01-02 14:53:00
10:46 AM,48.2,46.4,93,29.88,4.0,South,9.2,-,0.10,Rain,Rain,170,2006-01-02 15:46:00
10:53 AM,48.9,46.0,90,29.90,8.0,South,8.1,-,0.11,Rain,Light Rain,170,2006-01-02 15:53:00
11:53 AM,50.0,46.0,86,29.86,10.0,Calm,Calm,-,0.03,,Overcast,0,2006-01-02 16:53:00
12:53 PM,50.0,46.0,86,29.82,6.0,South,6.9,-,0.05,Rain,Light Rain,170,2006-01-02 17:53:00
1:53 PM,50.0,46.0,86,29.79,10.0,SSE,5.8,-,0.09,,Overcast,150,2006-01-02 18:53:00
2:53 PM,51.1,46.0,83,29.78,10.0,SE,8.1,-,N/A,,Overcast,140,2006-01-02 19:53:00
3:53 PM,48.9,45.0,86,29.79,5.0,East,6.9,-,0.08,Rain,Rain,90,2006-01-02 20:53:00
4:53 PM,46.9,43.0,86,29.75,10.0,ESE,12.7,-,0.03,,Overcast,110,2006-01-02 21:53:00
5:53 PM,46.9,42.1,83,29.73,10.0,SE,11.5,-,N/A,,Overcast,130,2006-01-02 22:53:00
6:53 PM,46.9,42.1,83,29.71,10.0,ESE,10.4,-,N/A,,Overcast,120,2006-01-02 23:53:00
7:53 PM,46.9,41.0,80,29.70,10.0,SE,8.1,-,0.00,Thunderstorm,Overcast,130,2006-01-03 00:53:00
8:53 PM,46.9,42.1,83,29.72,9.0,SSE,17.3,23.0,0.02,Rain-Thunderstorm,Thunderstorms and Rain,160,2006-01-03 01:53:00
9:53 PM,46.0,42.1,86,29.68,10.0,Calm,Calm,-,0.07,Rain,Light Rain,0,2006-01-03 02:53:00
11:23 PM,44.6,39.2,81,29.68,10.0,East,3.5,-,0.04,Rain-Thunderstorm,Light Rain,90,2006-01-03 04:23:00
11:53 PM,44.1,41.0,89,29.67,10.0,East,6.9,-,0.07,Rain,Light Rain,90,2006-01-03 04:53:00